createdAt,value
2019-05-07T00:01:57.481Z,77.95
2019-05-07T00:05:02.651Z,78.50
2019-05-07T00:08:06.579Z,77.79
2019-05-07T00:11:12.226Z,78.54
2019-05-07T00:14:15.787Z,77.52
2019-05-07T00:17:19.807Z,77.97
2019-05-07T00:20:23.844Z,78.31
2019-05-07T00:23:27.560Z,78.22
2019-05-07T00:26:32.034Z,77.60
2019-05-07T00:29:36.194Z,78.70
2019-05-07T00:32:39.895Z,78.58
2019-05-07T00:36:02.722Z,79.61
2019-05-07T00:39:17.267Z,79.27
2019-05-07T00:42:26.240Z,78.34
2019-05-07T00:45:37.513Z,78.48
2019-05-07T00:48:42.305Z,78.20
2019-05-07T00:51:46.157Z,78.26
2019-05-07T00:54:49.858Z,77.60
2019-05-07T00:57:53.556Z,77.59
2019-05-07T01:00:57.255Z,78.51
2019-05-07T01:04:02.676Z,78.29
2019-05-07T01:07:06.543Z,78.03
2019-05-07T01:10:12.681Z,78.11
2019-05-07T01:13:16.191Z,77.90
2019-05-07T01:16:22.053Z,77.46
2019-05-07T01:19:25.458Z,78.13
2019-05-07T01:22:29.220Z,78.02
2019-05-07T01:25:33.024Z,77.82
2019-05-07T01:28:54.354Z,77.42
2019-05-07T01:32:12.769Z,77.76
2019-05-07T01:35:22.531Z,77.91
2019-05-07T01:38:26.601Z,77.99
2019-05-07T01:41:32.557Z,77.93
2019-05-07T01:44:35.818Z,77.70
2019-05-07T01:47:39.505Z,77.71
2019-05-07T01:50:43.214Z,77.73
2019-05-07T01:53:46.901Z,78.04
2019-05-07T01:56:52.184Z,77.85
2019-05-07T01:59:56.034Z,78.35
2019-05-07T02:03:06.663Z,77.38
2019-05-07T02:06:22.154Z,77.41
2019-05-07T02:09:42.471Z,77.67
2019-05-07T02:12:46.255Z,78.17
2019-05-07T02:15:58.486Z,78.20
2019-05-07T02:18:55.398Z,78.30
2019-05-07T02:21:59.095Z,77.13
2019-05-07T02:25:03.370Z,77.66
2019-05-07T02:28:07.616Z,78.46
2019-05-07T02:31:14.593Z,77.62
2019-05-07T02:34:16.766Z,77.88
2019-05-07T02:37:27.412Z,78.41
2019-05-07T02:40:44.570Z,77.37
2019-05-07T02:43:48.277Z,77.71
2019-05-07T02:47:13.995Z,77.82
2019-05-07T02:50:32.725Z,77.88
2019-05-07T02:53:48.283Z,77.67
2019-05-07T02:56:53.367Z,77.60
2019-05-07T02:59:57.207Z,78.87
2019-05-07T03:03:03.966Z,78.33
2019-05-07T03:06:06.733Z,79.38
2019-05-07T03:09:14.087Z,79.08
2019-05-07T03:12:16.120Z,78.89
2019-05-07T03:15:20.333Z,78.21
2019-05-07T03:18:24.517Z,78.34
2019-05-07T03:21:47.245Z,77.44
2019-05-07T03:25:03.322Z,77.98
2019-05-07T03:28:06.972Z,78.61
2019-05-07T03:31:17.355Z,78.04
2019-05-07T03:34:46.537Z,77.87
2019-05-07T03:37:48.666Z,77.67
2019-05-07T03:40:53.254Z,78.73
2019-05-07T03:43:58.835Z,79.38
2019-05-07T03:47:23.565Z,78.77
2019-05-07T03:50:26.192Z,78.36
2019-05-07T03:53:29.904Z,78.00
2019-05-07T03:56:34.018Z,78.49
2019-05-07T03:59:37.725Z,78.43
2019-05-07T04:02:43.714Z,77.65
2019-05-07T04:05:46.944Z,78.09
2019-05-07T04:08:53.198Z,78.29
2019-05-07T04:11:56.133Z,78.37
2019-05-07T04:15:03.063Z,78.03
2019-05-07T04:18:05.359Z,78.59
2019-05-07T04:21:09.123Z,78.20
2019-05-07T04:24:23.526Z,78.57
2019-05-07T04:27:46.690Z,78.61
2019-05-07T04:30:48.511Z,79.10
2019-05-07T04:33:53.368Z,78.19
2019-05-07T04:36:57.250Z,78.10
2019-05-07T04:40:03.204Z,78.60
2019-05-07T04:43:06.625Z,78.40
2019-05-07T04:46:14.086Z,78.56
2019-05-07T04:49:16.041Z,78.81
2019-05-07T04:52:26.555Z,78.90
2019-05-07T04:55:33.186Z,79.15
2019-05-07T04:58:35.688Z,79.13
2019-05-07T05:01:43.781Z,79.28
2019-05-07T05:04:47.502Z,78.77
2019-05-07T05:07:53.387Z,78.65
2019-05-07T05:10:56.638Z,78.03
2019-05-07T05:14:02.791Z,77.98
2019-05-07T05:17:05.841Z,77.63
2019-05-07T05:20:10.226Z,78.91
2019-05-07T05:23:22.732Z,78.51
2019-05-07T05:26:26.845Z,78.81
2019-05-07T05:29:32.276Z,78.21
2019-05-07T05:32:36.115Z,77.21
2019-05-07T05:35:39.821Z,78.54
2019-05-07T05:38:43.518Z,78.55
2019-05-07T05:41:51.704Z,78.54
2019-05-07T05:44:54.874Z,76.64
2019-05-07T05:48:04.570Z,76.82
2019-05-07T05:51:23.046Z,78.66
2019-05-07T05:54:32.964Z,77.69
2019-05-07T05:57:56.033Z,76.79
2019-05-07T06:01:19.459Z,76.65
2019-05-07T06:04:30.069Z,76.58
2019-05-07T06:07:38.294Z,76.24
2019-05-07T06:10:51.977Z,75.53
2019-05-07T06:14:02.304Z,78.10
2019-05-07T06:17:32.063Z,76.79
2019-05-07T06:20:56.644Z,75.82
2019-05-07T06:24:02.327Z,75.68
2019-05-07T06:27:06.786Z,74.76
2019-05-07T06:30:12.124Z,74.10
2019-05-07T06:33:15.915Z,73.37
2019-05-07T06:36:21.858Z,71.93
2019-05-07T06:39:28.202Z,73.06
2019-05-07T06:42:57.630Z,72.93
2019-05-07T06:46:01.985Z,71.77
2019-05-07T06:49:05.801Z,72.57
2019-05-07T06:52:09.518Z,71.04
2019-05-07T06:55:14.643Z,71.56
2019-05-07T06:58:18.369Z,69.56
2019-05-07T07:01:34.184Z,70.99
2019-05-07T07:05:02.688Z,68.94
2019-05-07T07:08:12.514Z,70.19
2019-05-07T07:11:24.936Z,68.75
2019-05-07T07:14:28.637Z,67.63
2019-05-07T07:17:32.882Z,65.16
2019-05-07T07:20:37.179Z,64.65
2019-05-07T07:23:42.915Z,64.35
2019-05-07T07:26:46.339Z,61.03
2019-05-07T07:30:12.802Z,60.13
2019-05-07T07:33:17.276Z,60.49
2019-05-07T07:36:22.742Z,60.88
2019-05-07T07:39:26.760Z,56.65
2019-05-07T07:42:31.970Z,58.25
2019-05-07T07:45:35.950Z,57.21
2019-05-07T07:48:39.657Z,57.59
2019-05-07T07:51:45.750Z,57.97
2019-05-07T07:54:48.851Z,57.88
2019-05-07T07:58:02.593Z,56.72
2019-05-07T08:01:25.258Z,56.02
2019-05-07T08:04:28.970Z,54.83
2019-05-07T08:07:33.139Z,55.20
2019-05-07T08:10:37.253Z,55.77
2019-05-07T08:13:42.503Z,53.21
2019-05-07T08:16:46.324Z,54.26
2019-05-07T08:19:51.986Z,53.88
2019-05-07T08:22:55.865Z,50.45
2019-05-07T08:26:02.390Z,49.20
2019-05-07T08:29:05.583Z,48.72
2019-05-07T08:32:28.617Z,48.94
2019-05-07T08:35:42.081Z,47.15
2019-05-07T08:38:52.439Z,47.67
2019-05-07T08:41:55.622Z,44.59
2019-05-07T08:45:24.936Z,45.96
2019-05-07T08:48:36.200Z,47.04
2019-05-07T08:51:39.992Z,47.54
2019-05-07T08:54:43.729Z,49.96
2019-05-07T08:57:47.531Z,48.66
2019-05-07T09:00:52.304Z,49.16
2019-05-07T09:03:56.156Z,45.08
2019-05-07T09:07:00.023Z,45.87
2019-05-07T09:10:03.799Z,47.64
2019-05-07T09:13:07.513Z,47.04
2019-05-07T09:16:12.927Z,46.46
2019-05-07T09:19:17.367Z,46.69
2019-05-07T09:22:23.050Z,43.31
2019-05-07T09:25:26.650Z,42.38
2019-05-07T09:28:52.336Z,44.07
2019-05-07T09:32:17.614Z,44.00
2019-05-07T09:35:29.150Z,43.16
2019-05-07T09:38:32.960Z,42.16
2019-05-07T09:41:36.758Z,42.18
2019-05-07T09:44:42.370Z,41.50
2019-05-07T09:47:46.000Z,42.55
2019-05-07T09:50:49.709Z,43.59
2019-05-07T09:53:53.737Z,44.86
2019-05-07T09:56:57.445Z,45.60
2019-05-07T10:00:02.242Z,44.29
2019-05-07T10:03:06.512Z,45.23
2019-05-07T10:06:12.317Z,43.34
2019-05-07T10:09:16.135Z,42.15
2019-05-07T10:12:26.567Z,38.83
2019-05-07T10:15:30.446Z,39.15
2019-05-07T10:18:34.245Z,39.30
2019-05-07T10:21:38.033Z,39.80
2019-05-07T10:24:42.023Z,41.14
2019-05-07T10:27:46.025Z,40.73
2019-05-07T10:30:52.092Z,41.62
2019-05-07T10:33:55.951Z,39.51
2019-05-07T10:36:59.807Z,37.03
2019-05-07T10:40:03.687Z,30.46
2019-05-07T10:43:07.415Z,34.50
2019-05-07T10:46:29.061Z,34.27
2019-05-07T10:49:38.955Z,31.40
2019-05-07T10:52:42.849Z,29.49
2019-05-07T10:55:46.635Z,26.20
2019-05-07T10:58:52.209Z,27.75
2019-05-07T11:02:05.421Z,26.14
2019-05-07T11:05:09.601Z,24.40
2019-05-07T11:08:13.471Z,24.31
2019-05-07T11:11:17.357Z,26.10
2019-05-07T11:14:21.714Z,23.29
2019-05-07T11:17:33.264Z,24.18
2019-05-07T11:20:49.114Z,24.92
2019-05-07T11:23:42.902Z,25.03
2019-05-07T11:26:46.717Z,26.23
2019-05-07T11:29:50.439Z,24.58
2019-05-07T11:32:54.154Z,25.96
2019-05-07T11:35:57.882Z,24.75
2019-05-07T11:39:01.865Z,23.57
2019-05-07T11:42:17.969Z,27.41
2019-05-07T11:45:28.273Z,27.32
2019-05-07T11:48:47.526Z,29.20
2019-05-07T11:51:56.384Z,27.18
2019-05-07T11:55:00.093Z,25.49
2019-05-07T11:58:04.197Z,26.25
2019-05-07T12:01:13.939Z,25.21
2019-05-07T12:04:17.810Z,25.56
2019-05-07T12:07:22.365Z,22.12
2019-05-07T12:10:26.295Z,21.74
2019-05-07T12:13:32.099Z,25.00
2019-05-07T12:16:35.530Z,24.97
2019-05-07T12:19:39.274Z,26.01
2019-05-07T12:22:48.862Z,23.76
2019-05-07T12:25:52.980Z,22.90
2019-05-07T12:28:56.766Z,22.44
2019-05-07T12:32:23.984Z,20.97
2019-05-07T12:35:27.698Z,23.67
2019-05-07T12:38:32.379Z,25.03
2019-05-07T12:41:36.182Z,27.33
2019-05-07T12:44:42.355Z,28.71
2019-05-07T12:47:45.738Z,31.52
2019-05-07T12:50:49.525Z,32.45
2019-05-07T12:54:04.688Z,33.73
2019-05-07T12:57:08.503Z,33.98
2019-05-07T13:00:32.334Z,34.03
2019-05-07T13:03:43.194Z,30.52
2019-05-07T13:06:53.848Z,31.43
2019-05-07T13:09:57.566Z,32.70
2019-05-07T13:13:02.214Z,33.95
2019-05-07T13:16:06.162Z,33.84
2019-05-07T13:19:09.897Z,33.96
2019-05-07T13:22:13.689Z,33.04
2019-05-07T13:25:17.680Z,33.10
2019-05-07T13:28:21.487Z,34.25
2019-05-07T13:31:27.631Z,33.20
2019-05-07T13:34:33.800Z,32.37
2019-05-07T13:37:41.788Z,29.04
2019-05-07T13:41:22.992Z,32.67
2019-05-07T13:44:39.316Z,30.11
2019-05-07T13:47:43.571Z,29.84
2019-05-07T13:50:47.470Z,29.07
2019-05-07T13:53:52.828Z,29.93
2019-05-07T13:56:56.651Z,31.01
2019-05-07T14:00:02.415Z,31.01
2019-05-07T14:03:06.164Z,31.25
2019-05-07T14:06:12.654Z,33.01
2019-05-07T14:09:23.848Z,32.98
2019-05-07T14:12:26.955Z,33.89
2019-05-07T14:15:32.529Z,34.60
2019-05-07T14:18:37.737Z,34.95
2019-05-07T14:21:42.195Z,34.61
2019-05-07T14:24:46.140Z,35.90
2019-05-07T14:27:49.855Z,35.82
2019-05-07T14:30:53.595Z,35.81
2019-05-07T14:34:22.533Z,34.97
2019-05-07T14:37:32.498Z,35.73
2019-05-07T14:40:36.348Z,35.27
2019-05-07T14:43:46.930Z,35.40
2019-05-07T14:46:54.329Z,36.39
2019-05-07T15:10:52.322Z,38.92
2019-05-07T15:13:55.998Z,38.05
2019-05-07T15:17:06.274Z,37.79
2019-05-07T15:20:10.250Z,37.52
2019-05-07T15:23:22.577Z,39.01
2019-05-07T15:26:26.663Z,37.62
2019-05-07T15:29:31.864Z,39.01
2019-05-07T15:32:35.889Z,39.41
2019-05-07T15:35:39.667Z,40.35
2019-05-07T15:38:43.541Z,39.53
2019-05-07T15:41:47.263Z,39.27
2019-05-07T15:44:52.813Z,40.17
2019-05-07T15:47:58.068Z,40.03
2019-05-07T15:51:02.030Z,39.34
2019-05-07T15:54:06.017Z,39.55
2019-05-07T15:57:12.653Z,41.58
2019-05-07T16:00:19.060Z,39.64
2019-05-07T16:03:28.392Z,40.32
2019-05-07T16:06:32.506Z,40.37
2019-05-07T16:09:45.069Z,40.33
2019-05-07T16:12:49.468Z,38.43
2019-05-07T16:15:53.347Z,39.38
2019-05-07T16:19:12.250Z,40.76
2019-05-07T16:22:22.593Z,38.72
2019-05-07T16:25:26.310Z,40.47
2019-05-07T16:28:30.010Z,40.88
2019-05-07T16:31:33.734Z,40.08
2019-05-07T16:34:37.541Z,41.04
2019-05-07T16:37:42.822Z,39.60
2019-05-07T16:40:46.737Z,38.29
2019-05-07T16:43:52.283Z,40.13
2019-05-07T16:46:55.928Z,38.63
2019-05-07T16:49:59.656Z,39.79
2019-05-07T16:53:03.386Z,40.47
2019-05-07T16:56:07.166Z,41.44
2019-05-07T16:59:12.585Z,40.88
2019-05-07T17:02:21.427Z,41.76
2019-05-07T17:05:25.141Z,39.03
2019-05-07T17:08:42.384Z,41.00
2019-05-07T17:11:46.686Z,43.32
2019-05-07T17:14:51.796Z,46.85
2019-05-07T17:18:02.729Z,45.18
2019-05-07T17:21:06.784Z,39.68
2019-05-07T17:24:11.966Z,41.78
2019-05-07T17:27:15.832Z,44.51
2019-05-07T17:30:19.621Z,40.92
2019-05-07T17:33:23.609Z,41.98
2019-05-07T17:36:27.656Z,47.55
2019-05-07T17:39:32.126Z,46.49
2019-05-07T17:42:35.961Z,45.09
2019-05-07T17:45:39.690Z,46.05
2019-05-07T17:48:43.697Z,46.93
2019-05-07T17:51:47.431Z,49.37
2019-05-07T17:54:52.742Z,50.49
2019-05-07T17:57:56.554Z,50.35
2019-05-07T18:01:01.906Z,50.40
2019-05-07T18:04:05.652Z,51.40
2019-05-07T18:07:09.332Z,50.78
2019-05-07T18:10:13.132Z,52.32
2019-05-07T18:13:16.844Z,54.26
2019-05-07T18:16:27.643Z,54.24
2019-05-07T18:19:33.097Z,54.61
2019-05-07T18:22:37.072Z,55.63
2019-05-07T18:25:42.689Z,54.66
2019-05-07T18:28:46.199Z,54.63
2019-05-07T18:31:56.399Z,55.19
2019-05-07T18:35:02.210Z,56.25
2019-05-07T18:38:05.804Z,57.11
2019-05-07T18:41:11.978Z,57.96
2019-05-07T18:44:16.212Z,57.78
2019-05-07T18:47:22.175Z,57.71
2019-05-07T18:50:25.562Z,58.85
2019-05-07T18:53:31.673Z,59.67
2019-05-07T18:56:35.068Z,58.79
2019-05-07T18:59:38.778Z,59.10
2019-05-07T19:02:42.774Z,59.69
2019-05-07T19:05:46.706Z,61.27
2019-05-07T19:08:52.531Z,61.80
2019-05-07T19:11:56.526Z,60.76
2019-05-07T19:15:02.741Z,61.88
2019-05-07T19:18:05.879Z,62.05
2019-05-07T19:21:09.589Z,61.37
2019-05-07T19:24:13.373Z,62.00
2019-05-07T19:27:17.402Z,61.86
2019-05-07T19:30:21.929Z,62.39
2019-05-07T19:33:27.161Z,63.75
2019-05-07T19:36:32.135Z,63.02
2019-05-07T19:39:36.129Z,63.24
2019-05-07T19:42:39.928Z,63.18
2019-05-07T19:45:43.710Z,63.45
2019-05-07T19:48:47.428Z,63.53
2019-05-07T19:51:52.456Z,64.20
2019-05-07T19:55:00.836Z,64.00
2019-05-07T19:58:04.422Z,65.31
2019-05-07T20:01:09.318Z,66.28
2019-05-07T20:04:13.454Z,66.12
2019-05-07T20:07:17.281Z,67.10
2019-05-07T20:10:33.061Z,67.55
2019-05-07T20:13:36.886Z,67.50
2019-05-07T20:16:42.083Z,67.49
2019-05-07T20:19:45.810Z,67.63
2019-05-07T20:22:51.735Z,67.99
2019-05-07T20:25:55.013Z,67.45
2019-05-07T20:28:59.127Z,66.95
2019-05-07T20:32:02.843Z,67.19
2019-05-07T20:35:06.720Z,66.91
2019-05-07T20:38:10.860Z,68.10
2019-05-07T20:41:16.623Z,66.86
2019-05-07T20:44:20.025Z,66.50
2019-05-07T20:47:23.734Z,66.55
2019-05-07T20:50:27.512Z,66.61
2019-05-07T20:53:49.148Z,66.51
2019-05-07T20:57:02.278Z,65.40
2019-05-07T21:00:12.359Z,65.90
2019-05-07T21:03:23.704Z,64.94
2019-05-07T21:06:28.354Z,63.29
2019-05-07T21:09:32.787Z,60.31
2019-05-07T21:12:36.836Z,62.24
2019-05-07T21:15:41.855Z,63.38
2019-05-07T21:18:45.730Z,63.48
2019-05-07T21:21:49.451Z,64.10
2019-05-07T21:24:53.538Z,63.67
2019-05-07T21:27:57.296Z,63.31
2019-05-07T21:31:02.742Z,64.35
2019-05-07T21:34:06.690Z,63.56
2019-05-07T21:37:12.356Z,64.06
2019-05-07T21:40:15.993Z,62.96
2019-05-07T21:43:22.232Z,63.63
2019-05-07T21:46:25.529Z,63.18
2019-05-07T21:49:29.314Z,62.93
2019-05-07T21:52:35.472Z,63.35
2019-05-07T21:56:02.176Z,63.36
2019-05-07T21:59:05.801Z,63.14
2019-05-07T22:02:14.994Z,63.04
2019-05-07T22:05:18.954Z,62.23
2019-05-07T22:08:22.655Z,62.91
2019-05-07T22:11:26.384Z,62.86
2019-05-07T22:14:32.677Z,62.72
2019-05-07T22:17:35.806Z,63.31
2019-05-07T22:20:39.520Z,63.33
2019-05-07T22:23:43.229Z,63.94
2019-05-07T22:26:46.938Z,64.28
2019-05-07T22:29:52.729Z,64.01
2019-05-07T22:33:02.469Z,64.48
2019-05-07T22:36:06.278Z,64.17
2019-05-07T22:39:12.634Z,63.63
2019-05-07T22:42:15.857Z,64.64
2019-05-07T22:45:19.648Z,64.48
2019-05-07T22:48:23.357Z,64.94
2019-05-07T22:51:27.067Z,65.50
2019-05-07T22:54:31.940Z,65.48
2019-05-07T22:57:47.611Z,65.94
2019-05-07T23:00:55.752Z,65.35
2019-05-07T23:03:59.543Z,65.65
2019-05-07T23:07:03.578Z,66.54
2019-05-07T23:10:07.727Z,65.03
2019-05-07T23:13:13.027Z,66.19
2019-05-07T23:16:17.163Z,64.09
2019-05-07T23:19:22.082Z,65.56
2019-05-07T23:22:26.078Z,65.96
2019-05-07T23:25:32.159Z,66.17
2019-05-07T23:28:35.534Z,65.83
2019-05-07T23:31:39.252Z,64.94
2019-05-07T23:34:42.957Z,66.00
2019-05-07T23:37:46.955Z,66.18
2019-05-07T23:41:15.832Z,65.36
2019-05-07T23:44:20.423Z,65.55
2019-05-07T23:47:24.137Z,65.50
2019-05-07T23:50:27.934Z,65.13
2019-05-07T23:53:31.676Z,66.27
2019-05-07T23:56:35.457Z,66.56
2019-05-07T23:59:39.161Z,65.92
